sensor_id;sensor_type;location;lat;lon;timestamp;pressure;altitude;pressure_sealevel;temperature;humidity
42859;BME280;28505;56.970;40.998;2023-05-23T00:02:47;100713.25;;;11.72;100.00
42859;BME280;28505;56.970;40.998;2023-05-23T00:08:10;100711.75;;;11.61;100.00
42859;BME280;28505;56.970;40.998;2023-05-23T00:13:32;100703.66;;;11.56;100.00
42859;BME280;28505;56.970;40.998;2023-05-23T00:18:55;100708.53;;;11.54;100.00
42859;BME280;28505;56.970;40.998;2023-05-23T00:24:19;100701.25;;;11.55;100.00
42859;BME280;28505;56.970;40.998;2023-05-23T00:29:42;100711.50;;;11.58;100.00
42859;BME280;28505;56.970;40.998;2023-05-23T00:35:05;100707.47;;;11.55;100.00
42859;BME280;28505;56.970;40.998;2023-05-23T00:40:27;100701.50;;;11.58;100.00
42859;BME280;28505;56.970;40.998;2023-05-23T00:45:49;100705.25;;;11.62;100.00
42859;BME280;28505;56.970;40.998;2023-05-23T00:51:11;100699.31;;;11.60;100.00
42859;BME280;28505;56.970;40.998;2023-05-23T00:56:35;100702.63;;;11.52;100.00
42859;BME280;28505;56.970;40.998;2023-05-23T01:01:58;100711.53;;;11.53;100.00
42859;BME280;28505;56.970;40.998;2023-05-23T01:07:21;100713.38;;;11.57;100.00
42859;BME280;28505;56.970;40.998;2023-05-23T01:18:44;100706.69;;;11.49;100.00
42859;BME280;28505;56.970;40.998;2023-05-23T01:29:38;100712.78;;;11.65;100.00
42859;BME280;28505;56.970;40.998;2023-05-23T01:35:01;100716.44;;;11.80;100.00
42859;BME280;28505;56.970;40.998;2023-05-23T01:40:24;100711.56;;;11.82;100.00
42859;BME280;28505;56.970;40.998;2023-05-23T01:45:47;100705.63;;;11.85;100.00
42859;BME280;28505;56.970;40.998;2023-05-23T01:51:10;100712.56;;;11.96;100.00
42859;BME280;28505;56.970;40.998;2023-05-23T01:56:33;100717.31;;;12.09;100.00
42859;BME280;28505;56.970;40.998;2023-05-23T02:01:55;100712.09;;;12.18;100.00
42859;BME280;28505;56.970;40.998;2023-05-23T02:07:17;100727.06;;;12.34;100.00
42859;BME280;28505;56.970;40.998;2023-05-23T02:12:43;100722.91;;;12.42;100.00
42859;BME280;28505;56.970;40.998;2023-05-23T02:18:05;100718.28;;;12.48;100.00
42859;BME280;28505;56.970;40.998;2023-05-23T02:23:52;100714.69;;;12.52;100.00
42859;BME280;28505;56.970;40.998;2023-05-23T02:29:14;100704.00;;;12.66;100.00
42859;BME280;28505;56.970;40.998;2023-05-23T02:34:37;100706.03;;;12.79;100.00
42859;BME280;28505;56.970;40.998;2023-05-23T02:39:59;100710.16;;;12.96;100.00
42859;BME280;28505;56.970;40.998;2023-05-23T02:45:23;100693.19;;;13.09;100.00
42859;BME280;28505;56.970;40.998;2023-05-23T02:50:45;100701.38;;;13.23;100.00
42859;BME280;28505;56.970;40.998;2023-05-23T02:56:07;100687.81;;;13.28;100.00
42859;BME280;28505;56.970;40.998;2023-05-23T03:01:30;100685.81;;;13.33;100.00
42859;BME280;28505;56.970;40.998;2023-05-23T03:06:52;100691.44;;;13.37;100.00
42859;BME280;28505;56.970;40.998;2023-05-23T03:12:19;100700.63;;;13.41;100.00
42859;BME280;28505;56.970;40.998;2023-05-23T03:17:42;100706.66;;;13.52;100.00
42859;BME280;28505;56.970;40.998;2023-05-23T03:23:04;100698.00;;;13.69;100.00
42859;BME280;28505;56.970;40.998;2023-05-23T03:28:26;100705.13;;;13.97;100.00
42859;BME280;28505;56.970;40.998;2023-05-23T03:33:48;100703.56;;;14.38;100.00
42859;BME280;28505;56.970;40.998;2023-05-23T03:39:10;100711.63;;;14.84;100.00
42859;BME280;28505;56.970;40.998;2023-05-23T03:44:35;100706.31;;;15.29;100.00
42859;BME280;28505;56.970;40.998;2023-05-23T03:49:59;100711.69;;;15.57;100.00
42859;BME280;28505;56.970;40.998;2023-05-23T03:55:24;100719.22;;;15.82;100.00
42859;BME280;28505;56.970;40.998;2023-05-23T04:00:48;100712.69;;;16.06;100.00
42859;BME280;28505;56.970;40.998;2023-05-23T04:06:10;100712.19;;;16.35;100.00
42859;BME280;28505;56.970;40.998;2023-05-23T04:11:37;100724.31;;;16.69;97.90
42859;BME280;28505;56.970;40.998;2023-05-23T04:17:00;100704.41;;;17.08;86.29
42859;BME280;28505;56.970;40.998;2023-05-23T04:22:23;100707.50;;;17.50;83.09
42859;BME280;28505;56.970;40.998;2023-05-23T04:27:45;100710.84;;;17.99;78.56
42859;BME280;28505;56.970;40.998;2023-05-23T04:33:08;100697.69;;;18.39;73.60
42859;BME280;28505;56.970;40.998;2023-05-23T04:38:30;100696.72;;;18.74;71.02
42859;BME280;28505;56.970;40.998;2023-05-23T04:43:53;100694.28;;;19.10;69.54
42859;BME280;28505;56.970;40.998;2023-05-23T04:49:30;100691.97;;;19.54;66.25
42859;BME280;28505;56.970;40.998;2023-05-23T04:54:55;100687.25;;;19.97;66.81
42859;BME280;28505;56.970;40.998;2023-05-23T05:00:18;100683.06;;;20.24;61.80
42859;BME280;28505;56.970;40.998;2023-05-23T05:05:41;100691.03;;;20.17;64.37
42859;BME280;28505;56.970;40.998;2023-05-23T05:11:03;100674.38;;;20.09;73.15
42859;BME280;28505;56.970;40.998;2023-05-23T05:16:25;100672.06;;;19.87;68.38
42859;BME280;28505;56.970;40.998;2023-05-23T05:21:48;100674.38;;;19.64;67.86
42859;BME280;28505;56.970;40.998;2023-05-23T05:27:09;100652.16;;;19.45;78.35
42859;BME280;28505;56.970;40.998;2023-05-23T05:32:32;100649.47;;;19.24;83.47
42859;BME280;28505;56.970;40.998;2023-05-23T05:37:55;100645.00;;;18.98;91.92
42859;BME280;28505;56.970;40.998;2023-05-23T05:43:17;100643.44;;;18.67;96.33
42859;BME280;28505;56.970;40.998;2023-05-23T05:48:40;100652.81;;;18.58;100.00
42859;BME280;28505;56.970;40.998;2023-05-23T05:54:07;100650.09;;;18.49;86.27
42859;BME280;28505;56.970;40.998;2023-05-23T05:59:29;100651.56;;;18.46;100.00
42859;BME280;28505;56.970;40.998;2023-05-23T06:04:54;100660.38;;;18.52;99.24
42859;BME280;28505;56.970;40.998;2023-05-23T06:10:17;100673.50;;;18.59;89.66
42859;BME280;28505;56.970;40.998;2023-05-23T06:15:40;100680.50;;;18.77;86.71
42859;BME280;28505;56.970;40.998;2023-05-23T06:21:03;100660.53;;;19.06;81.30
42859;BME280;28505;56.970;40.998;2023-05-23T06:26:28;100660.06;;;19.46;82.38
42859;BME280;28505;56.970;40.998;2023-05-23T06:31:51;100648.97;;;20.21;76.31
42859;BME280;28505;56.970;40.998;2023-05-23T06:37:13;100647.56;;;20.89;71.34
42859;BME280;28505;56.970;40.998;2023-05-23T06:42:35;100639.03;;;21.90;62.14
42859;BME280;28505;56.970;40.998;2023-05-23T06:48:03;100640.22;;;22.72;56.74
42859;BME280;28505;56.970;40.998;2023-05-23T06:53:28;100640.63;;;23.06;56.91
42859;BME280;28505;56.970;40.998;2023-05-23T06:58:50;100636.69;;;23.46;54.64
42859;BME280;28505;56.970;40.998;2023-05-23T07:04:13;100631.50;;;23.64;52.12
42859;BME280;28505;56.970;40.998;2023-05-23T07:09:37;100638.91;;;23.59;50.81
42859;BME280;28505;56.970;40.998;2023-05-23T07:15:07;100645.88;;;23.73;52.06
42859;BME280;28505;56.970;40.998;2023-05-23T07:20:36;100634.25;;;24.06;51.82
42859;BME280;28505;56.970;40.998;2023-05-23T07:26:06;100636.19;;;24.05;49.67
42859;BME280;28505;56.970;40.998;2023-05-23T07:31:38;100625.56;;;24.04;49.09
42859;BME280;28505;56.970;40.998;2023-05-23T07:37:01;100625.72;;;24.15;49.55
42859;BME280;28505;56.970;40.998;2023-05-23T07:42:31;100623.66;;;24.08;48.49
42859;BME280;28505;56.970;40.998;2023-05-23T07:47:53;100621.22;;;24.29;47.48
42859;BME280;28505;56.970;40.998;2023-05-23T07:53:16;100620.53;;;25.19;46.64
42859;BME280;28505;56.970;40.998;2023-05-23T07:58:38;100614.50;;;25.10;49.29
42859;BME280;28505;56.970;40.998;2023-05-23T08:04:01;100607.72;;;25.34;46.20
42859;BME280;28505;56.970;40.998;2023-05-23T08:09:28;100595.19;;;25.44;46.46
42859;BME280;28505;56.970;40.998;2023-05-23T08:14:51;100590.00;;;25.39;47.60
42859;BME280;28505;56.970;40.998;2023-05-23T08:20:18;100594.47;;;25.51;45.42
42859;BME280;28505;56.970;40.998;2023-05-23T08:25:44;100590.50;;;25.48;46.21
42859;BME280;28505;56.970;40.998;2023-05-23T08:31:07;100581.09;;;25.56;47.31
42859;BME280;28505;56.970;40.998;2023-05-23T08:36:29;100573.88;;;25.41;44.49
42859;BME280;28505;56.970;40.998;2023-05-23T08:41:55;100563.94;;;25.74;45.69
42859;BME280;28505;56.970;40.998;2023-05-23T08:47:18;100548.00;;;26.04;45.13
42859;BME280;28505;56.970;40.998;2023-05-23T08:52:58;100550.56;;;26.38;44.70
42859;BME280;28505;56.970;40.998;2023-05-23T08:58:23;100540.84;;;26.58;41.52
42859;BME280;28505;56.970;40.998;2023-05-23T09:03:50;100538.59;;;26.89;42.51
42859;BME280;28505;56.970;40.998;2023-05-23T09:09:41;100540.09;;;26.69;41.62
42859;BME280;28505;56.970;40.998;2023-05-23T09:15:08;100526.41;;;26.21;41.71
42859;BME280;28505;56.970;40.998;2023-05-23T09:20:32;100532.59;;;26.00;44.03
42859;BME280;28505;56.970;40.998;2023-05-23T09:26:09;100517.56;;;25.97;42.45
42859;BME280;28505;56.970;40.998;2023-05-23T09:31:32;100509.03;;;26.24;42.82
42859;BME280;28505;56.970;40.998;2023-05-23T09:36:55;100518.63;;;26.44;43.47
42859;BME280;28505;56.970;40.998;2023-05-23T09:42:22;100513.69;;;26.12;42.01
42859;BME280;28505;56.970;40.998;2023-05-23T09:47:51;100523.19;;;26.15;42.90
42859;BME280;28505;56.970;40.998;2023-05-23T09:53:14;100513.69;;;26.12;43.19
42859;BME280;28505;56.970;40.998;2023-05-23T09:58:37;100509.25;;;25.90;42.75
42859;BME280;28505;56.970;40.998;2023-05-23T10:04:00;100505.75;;;26.00;42.55
42859;BME280;28505;56.970;40.998;2023-05-23T10:09:25;100500.22;;;26.00;42.23
42859;BME280;28505;56.970;40.998;2023-05-23T10:14:56;100495.09;;;26.06;41.43
42859;BME280;28505;56.970;40.998;2023-05-23T10:20:19;100499.09;;;26.08;40.34
42859;BME280;28505;56.970;40.998;2023-05-23T10:25:43;100492.81;;;26.15;39.48
42859;BME280;28505;56.970;40.998;2023-05-23T10:31:06;100481.84;;;26.29;38.05
42859;BME280;28505;56.970;40.998;2023-05-23T10:36:44;100488.69;;;26.53;36.53
42859;BME280;28505;56.970;40.998;2023-05-23T10:42:20;100464.25;;;26.73;37.38
42859;BME280;28505;56.970;40.998;2023-05-23T10:47:50;100465.88;;;26.89;35.58
42859;BME280;28505;56.970;40.998;2023-05-23T10:53:15;100464.91;;;26.42;35.07
42859;BME280;28505;56.970;40.998;2023-05-23T10:58:38;100468.06;;;26.36;36.50
42859;BME280;28505;56.970;40.998;2023-05-23T11:04:04;100459.00;;;26.47;35.80
42859;BME280;28505;56.970;40.998;2023-05-23T11:09:27;100460.97;;;26.43;35.94
42859;BME280;28505;56.970;40.998;2023-05-23T11:14:53;100443.09;;;26.26;36.91
42859;BME280;28505;56.970;40.998;2023-05-23T11:20:17;100445.84;;;26.19;38.23
42859;BME280;28505;56.970;40.998;2023-05-23T11:25:45;100442.78;;;26.38;38.13
42859;BME280;28505;56.970;40.998;2023-05-23T11:31:08;100429.41;;;26.51;38.13
42859;BME280;28505;56.970;40.998;2023-05-23T11:36:31;100423.06;;;26.43;37.17
42859;BME280;28505;56.970;40.998;2023-05-23T11:42:03;100414.75;;;26.43;37.21
42859;BME280;28505;56.970;40.998;2023-05-23T11:47:26;100419.19;;;26.62;37.27
42859;BME280;28505;56.970;40.998;2023-05-23T11:52:49;100411.28;;;26.60;35.69
42859;BME280;28505;56.970;40.998;2023-05-23T11:58:14;100397.50;;;26.96;35.36
42859;BME280;28505;56.970;40.998;2023-05-23T12:03:48;100392.00;;;27.32;33.26
42859;BME280;28505;56.970;40.998;2023-05-23T12:09:11;100388.41;;;27.06;33.54
42859;BME280;28505;56.970;40.998;2023-05-23T12:14:33;100388.44;;;27.14;32.87
42859;BME280;28505;56.970;40.998;2023-05-23T12:19:56;100393.94;;;27.53;32.04
42859;BME280;28505;56.970;40.998;2023-05-23T12:25:17;100387.63;;;27.45;32.85
42859;BME280;28505;56.970;40.998;2023-05-23T12:30:42;100373.00;;;27.48;32.93
42859;BME280;28505;56.970;40.998;2023-05-23T12:36:06;100361.53;;;27.43;32.59
42859;BME280;28505;56.970;40.998;2023-05-23T12:41:28;100367.09;;;27.25;32.53
42859;BME280;28505;56.970;40.998;2023-05-23T12:46:50;100369.03;;;27.06;31.85
42859;BME280;28505;56.970;40.998;2023-05-23T12:52:12;100354.03;;;27.00;32.25
42859;BME280;28505;56.970;40.998;2023-05-23T12:57:34;100348.91;;;27.17;33.02
42859;BME280;28505;56.970;40.998;2023-05-23T13:02:57;100352.03;;;27.37;32.40
42859;BME280;28505;56.970;40.998;2023-05-23T13:08:19;100349.69;;;27.14;32.40
42859;BME280;28505;56.970;40.998;2023-05-23T13:13:42;100347.31;;;26.80;33.25
42859;BME280;28505;56.970;40.998;2023-05-23T13:19:04;100341.00;;;26.65;33.69
42859;BME280;28505;56.970;40.998;2023-05-23T13:24:27;100337.03;;;26.73;33.31
42859;BME280;28505;56.970;40.998;2023-05-23T13:29:49;100332.69;;;26.69;32.73
42859;BME280;28505;56.970;40.998;2023-05-23T13:35:13;100336.25;;;26.87;33.64
42859;BME280;28505;56.970;40.998;2023-05-23T13:40:37;100329.13;;;26.86;33.57
42859;BME280;28505;56.970;40.998;2023-05-23T13:46:02;100325.19;;;26.73;32.97
42859;BME280;28505;56.970;40.998;2023-05-23T13:51:25;100321.16;;;26.45;32.70
42859;BME280;28505;56.970;40.998;2023-05-23T13:56:47;100336.16;;;26.44;32.49
42859;BME280;28505;56.970;40.998;2023-05-23T14:02:09;100329.41;;;26.20;33.09
42859;BME280;28505;56.970;40.998;2023-05-23T14:07:31;100333.22;;;25.87;33.21
42859;BME280;28505;56.970;40.998;2023-05-23T14:12:54;100330.31;;;25.65;34.02
42859;BME280;28505;56.970;40.998;2023-05-23T14:18:16;100331.06;;;25.55;34.06
42859;BME280;28505;56.970;40.998;2023-05-23T14:23:38;100321.91;;;25.40;34.58
42859;BME280;28505;56.970;40.998;2023-05-23T14:29:00;100332.44;;;25.24;33.60
42859;BME280;28505;56.970;40.998;2023-05-23T14:34:22;100326.09;;;25.16;34.65
42859;BME280;28505;56.970;40.998;2023-05-23T14:39:44;100318.91;;;25.08;35.48
42859;BME280;28505;56.970;40.998;2023-05-23T14:45:07;100319.53;;;24.91;34.67
42859;BME280;28505;56.970;40.998;2023-05-23T14:50:29;100310.00;;;24.81;35.61
42859;BME280;28505;56.970;40.998;2023-05-23T14:55:51;100317.91;;;24.83;35.60
42859;BME280;28505;56.970;40.998;2023-05-23T15:01:13;100316.66;;;24.73;35.76
42859;BME280;28505;56.970;40.998;2023-05-23T15:06:38;100315.03;;;24.68;35.47
42859;BME280;28505;56.970;40.998;2023-05-23T15:12:00;100313.88;;;24.69;36.72
42859;BME280;28505;56.970;40.998;2023-05-23T15:17:22;100312.25;;;24.68;37.59
42859;BME280;28505;56.970;40.998;2023-05-23T15:22:48;100306.00;;;24.71;37.65
42859;BME280;28505;56.970;40.998;2023-05-23T15:28:10;100306.03;;;24.75;38.33
42859;BME280;28505;56.970;40.998;2023-05-23T15:33:34;100308.28;;;24.62;39.15
42859;BME280;28505;56.970;40.998;2023-05-23T15:38:57;100306.09;;;24.41;39.31
42859;BME280;28505;56.970;40.998;2023-05-23T15:44:19;100303.44;;;24.15;38.79
42859;BME280;28505;56.970;40.998;2023-05-23T15:49:43;100311.63;;;24.08;39.31
42859;BME280;28505;56.970;40.998;2023-05-23T15:55:05;100314.59;;;23.92;39.77
42859;BME280;28505;56.970;40.998;2023-05-23T16:00:28;100312.81;;;23.76;40.89
42859;BME280;28505;56.970;40.998;2023-05-23T16:05:50;100309.81;;;23.58;40.98
42859;BME280;28505;56.970;40.998;2023-05-23T16:11:12;100304.00;;;23.37;43.18
42859;BME280;28505;56.970;40.998;2023-05-23T16:16:34;100310.34;;;23.14;43.55
42859;BME280;28505;56.970;40.998;2023-05-23T16:21:56;100308.28;;;22.85;47.29
42859;BME280;28505;56.970;40.998;2023-05-23T16:27:18;100306.72;;;22.61;44.88
42859;BME280;28505;56.970;40.998;2023-05-23T16:32:40;100299.38;;;22.46;45.24
42859;BME280;28505;56.970;40.998;2023-05-23T16:38:02;100309.31;;;22.31;46.93
42859;BME280;28505;56.970;40.998;2023-05-23T16:43:25;100301.28;;;22.03;49.47
42859;BME280;28505;56.970;40.998;2023-05-23T16:48:48;100308.50;;;21.72;49.77
42859;BME280;28505;56.970;40.998;2023-05-23T16:54:11;100299.81;;;21.50;51.63
42859;BME280;28505;56.970;40.998;2023-05-23T16:59:33;100296.59;;;21.13;56.10
42859;BME280;28505;56.970;40.998;2023-05-23T17:04:55;100312.69;;;20.99;51.08
42859;BME280;28505;56.970;40.998;2023-05-23T17:10:17;100306.31;;;20.79;54.43
42859;BME280;28505;56.970;40.998;2023-05-23T17:15:40;100302.59;;;20.55;56.71
42859;BME280;28505;56.970;40.998;2023-05-23T17:21:03;100301.13;;;20.30;58.08
42859;BME280;28505;56.970;40.998;2023-05-23T17:26:25;100298.94;;;20.07;59.93
42859;BME280;28505;56.970;40.998;2023-05-23T17:31:47;100303.13;;;19.89;58.79
42859;BME280;28505;56.970;40.998;2023-05-23T17:37:10;100298.28;;;19.58;62.08
42859;BME280;28505;56.970;40.998;2023-05-23T17:42:32;100307.91;;;19.39;62.69
42859;BME280;28505;56.970;40.998;2023-05-23T17:47:54;100305.63;;;19.17;65.27
42859;BME280;28505;56.970;40.998;2023-05-23T17:53:19;100307.91;;;19.03;64.20
42859;BME280;28505;56.970;40.998;2023-05-23T17:58:42;100314.19;;;18.91;65.57
42859;BME280;28505;56.970;40.998;2023-05-23T18:04:05;100315.31;;;18.78;66.93
42859;BME280;28505;56.970;40.998;2023-05-23T18:09:27;100307.72;;;18.62;68.55
42859;BME280;28505;56.970;40.998;2023-05-23T18:14:49;100312.16;;;18.55;69.62
42859;BME280;28505;56.970;40.998;2023-05-23T18:20:13;100304.59;;;18.39;72.66
42859;BME280;28505;56.970;40.998;2023-05-23T18:25:36;100307.75;;;18.29;72.24
42859;BME280;28505;56.970;40.998;2023-05-23T18:30:58;100300.13;;;18.22;75.06
42859;BME280;28505;56.970;40.998;2023-05-23T18:36:20;100307.84;;;18.20;73.12
42859;BME280;28505;56.970;40.998;2023-05-23T18:41:42;100300.78;;;18.19;74.69
42859;BME280;28505;56.970;40.998;2023-05-23T18:47:04;100315.47;;;18.27;65.23
42859;BME280;28505;56.970;40.998;2023-05-23T18:52:26;100346.63;;;18.59;58.66
42859;BME280;28505;56.970;40.998;2023-05-23T18:57:48;100342.66;;;19.27;53.32
42859;BME280;28505;56.970;40.998;2023-05-23T19:03:11;100341.50;;;19.40;53.74
42859;BME280;28505;56.970;40.998;2023-05-23T19:08:33;100349.13;;;19.47;53.13
42859;BME280;28505;56.970;40.998;2023-05-23T19:13:55;100351.41;;;19.45;53.78
42859;BME280;28505;56.970;40.998;2023-05-23T19:19:18;100351.88;;;19.47;52.78
42859;BME280;28505;56.970;40.998;2023-05-23T19:24:41;100356.75;;;19.53;52.85
42859;BME280;28505;56.970;40.998;2023-05-23T19:30:03;100356.44;;;19.42;53.49
42859;BME280;28505;56.970;40.998;2023-05-23T19:35:27;100363.03;;;19.29;53.93
42859;BME280;28505;56.970;40.998;2023-05-23T19:40:49;100356.53;;;19.22;53.88
42859;BME280;28505;56.970;40.998;2023-05-23T19:46:12;100367.47;;;19.22;53.86
42859;BME280;28505;56.970;40.998;2023-05-23T19:51:35;100364.28;;;19.20;54.77
42859;BME280;28505;56.970;40.998;2023-05-23T19:56:58;100369.50;;;19.12;55.19
42859;BME280;28505;56.970;40.998;2023-05-23T20:02:21;100371.31;;;19.08;55.03
42859;BME280;28505;56.970;40.998;2023-05-23T20:07:43;100370.19;;;19.09;54.55
42859;BME280;28505;56.970;40.998;2023-05-23T20:13:06;100368.81;;;19.15;54.77
42859;BME280;28505;56.970;40.998;2023-05-23T20:18:28;100365.97;;;19.12;55.40
42859;BME280;28505;56.970;40.998;2023-05-23T20:23:51;100364.97;;;19.04;56.04
42859;BME280;28505;56.970;40.998;2023-05-23T20:29:13;100358.22;;;19.02;56.27
42859;BME280;28505;56.970;40.998;2023-05-23T20:34:35;100351.72;;;19.06;56.20
42859;BME280;28505;56.970;40.998;2023-05-23T20:39:57;100343.53;;;18.94;56.89
42859;BME280;28505;56.970;40.998;2023-05-23T20:45:22;100345.03;;;18.91;57.04
42859;BME280;28505;56.970;40.998;2023-05-23T20:50:44;100339.88;;;18.90;58.54
42859;BME280;28505;56.970;40.998;2023-05-23T20:56:06;100346.97;;;18.91;61.38
42859;BME280;28505;56.970;40.998;2023-05-23T21:01:31;100356.16;;;18.74;67.53
42859;BME280;28505;56.970;40.998;2023-05-23T21:06:53;100358.44;;;18.51;72.53
42859;BME280;28505;56.970;40.998;2023-05-23T21:12:16;100367.44;;;18.52;62.85
42859;BME280;28505;56.970;40.998;2023-05-23T21:17:37;100370.53;;;18.62;62.23
42859;BME280;28505;56.970;40.998;2023-05-23T21:23:00;100367.00;;;18.62;62.27
42859;BME280;28505;56.970;40.998;2023-05-23T21:28:23;100365.50;;;18.52;66.61
42859;BME280;28505;56.970;40.998;2023-05-23T21:33:46;100360.66;;;18.37;68.81
42859;BME280;28505;56.970;40.998;2023-05-23T21:39:08;100363.34;;;18.24;75.15
42859;BME280;28505;56.970;40.998;2023-05-23T21:44:30;100365.56;;;18.10;77.02
42859;BME280;28505;56.970;40.998;2023-05-23T21:49:52;100362.88;;;18.01;77.39
42859;BME280;28505;56.970;40.998;2023-05-23T21:55:14;100373.09;;;17.92;80.87
42859;BME280;28505;56.970;40.998;2023-05-23T22:00:36;100375.72;;;18.01;69.86
42859;BME280;28505;56.970;40.998;2023-05-23T22:05:58;100369.88;;;18.11;66.82
42859;BME280;28505;56.970;40.998;2023-05-23T22:11:20;100376.19;;;18.24;64.58
42859;BME280;28505;56.970;40.998;2023-05-23T22:16:41;100370.41;;;18.25;67.90
42859;BME280;28505;56.970;40.998;2023-05-23T22:22:04;100373.31;;;18.20;68.24
42859;BME280;28505;56.970;40.998;2023-05-23T22:27:28;100373.13;;;18.25;65.58
42859;BME280;28505;56.970;40.998;2023-05-23T22:32:50;100391.81;;;18.36;65.20
42859;BME280;28505;56.970;40.998;2023-05-23T22:38:12;100380.25;;;18.39;64.49
42859;BME280;28505;56.970;40.998;2023-05-23T22:43:34;100388.94;;;18.53;62.21
42859;BME280;28505;56.970;40.998;2023-05-23T22:49:00;100397.28;;;18.69;60.92
42859;BME280;28505;56.970;40.998;2023-05-23T22:54:26;100405.31;;;18.74;60.87
42859;BME280;28505;56.970;40.998;2023-05-23T22:59:48;100410.22;;;18.93;60.81
42859;BME280;28505;56.970;40.998;2023-05-23T23:05:10;100413.19;;;18.88;61.64
42859;BME280;28505;56.970;40.998;2023-05-23T23:10:33;100420.69;;;18.79;64.45
42859;BME280;28505;56.970;40.998;2023-05-23T23:15:54;100420.16;;;18.64;67.56
42859;BME280;28505;56.970;40.998;2023-05-23T23:21:19;100421.91;;;18.48;72.91
42859;BME280;28505;56.970;40.998;2023-05-23T23:26:41;100415.00;;;18.30;78.72
42859;BME280;28505;56.970;40.998;2023-05-23T23:32:04;100423.19;;;18.09;90.01
42859;BME280;28505;56.970;40.998;2023-05-23T23:37:26;100423.50;;;17.86;96.73
42859;BME280;28505;56.970;40.998;2023-05-23T23:42:48;100424.06;;;17.62;100.00
42859;BME280;28505;56.970;40.998;2023-05-23T23:48:10;100419.22;;;17.38;100.00
42859;BME280;28505;56.970;40.998;2023-05-23T23:53:36;100425.06;;;17.28;100.00
42859;BME280;28505;56.970;40.998;2023-05-23T23:58:58;100408.44;;;17.12;100.00
